Time;durP1;ratioP1;P1;durP2;ratioP2;P2;SDS_P1;SDS_P2;PMS_P1;PMS_P2;Temp;Humidity;BMP_temperature;BMP_pressure;BME280_temperature;BME280_humidity;BME280_pressure;Samples;Min_cycle;Max_cycle;Signal;HPM_P1;HPM_P2
2022/11/27 00:01:17;;;;;;;1.77;1.37;;;4.30;98.90;3.20;97112.00;;;;5034053;28;20208;-65
2022/11/27 00:03:44;;;;;;;1.73;1.63;;;4.20;99.10;3.00;97104.00;;;;5033972;28;20228;-64
2022/11/27 00:06:14;;;;;;;1.83;1.73;;;4.00;98.50;3.00;97096.00;;;;5033934;28;20215;-64
2022/11/27 00:08:41;;;;;;;3.03;2.53;;;4.00;99.00;3.10;97094.00;;;;5033742;28;20220;-64
2022/11/27 00:11:10;;;;;;;1.60;1.50;;;4.00;99.90;3.10;97082.00;;;;5016610;28;20510;-64
2022/11/27 00:13:38;;;;;;;1.23;1.23;;;4.10;99.90;3.10;97094.00;;;;5033634;28;20224;-63
2022/11/27 00:16:06;;;;;;;2.00;1.90;;;4.10;99.90;3.10;97085.00;;;;5033866;28;20206;-64
2022/11/27 00:18:33;;;;;;;2.23;2.10;;;4.10;99.90;3.20;97077.00;;;;5033113;28;20192;-63
2022/11/27 00:21:04;;;;;;;0.90;0.90;;;4.10;99.90;3.10;97079.00;;;;5033620;28;20201;-64
2022/11/27 00:23:34;;;;;;;1.87;1.77;;;4.10;99.90;2.90;97073.00;;;;5015883;28;20201;-64
2022/11/27 00:26:02;;;;;;;2.27;1.90;;;4.00;99.40;2.90;97066.00;;;;5016311;28;20220;-63
2022/11/27 00:28:29;;;;;;;0.97;0.97;;;3.80;99.90;3.00;97074.00;;;;5033778;28;20218;-64
2022/11/27 00:30:59;;;;;;;1.07;1.07;;;3.90;99.90;3.00;97064.00;;;;5033520;28;20205;-64
2022/11/27 00:33:25;;;;;;;1.93;1.60;;;3.90;99.90;2.90;97046.00;;;;5033481;28;20213;-63
2022/11/27 00:35:51;;;;;;;2.20;1.80;;;3.90;99.90;3.00;97047.00;;;;5033354;28;20224;-63
2022/11/27 00:38:19;;;;;;;1.00;1.00;;;4.00;99.90;3.00;97049.00;;;;5033146;28;20603;-63
2022/11/27 00:40:48;;;;;;;1.70;1.60;;;4.00;99.90;3.10;97034.00;;;;5032866;28;20228;-65
2022/11/27 00:43:14;;;;;;;6.67;6.00;;;4.00;99.90;3.20;97033.00;;;;5032833;28;20216;-64
2022/11/27 00:45:41;;;;;;;6.83;3.77;;;4.10;99.90;3.30;97042.00;;;;5033121;28;20510;-63
2022/11/27 00:48:08;;;;;;;4.37;3.07;;;4.20;99.90;3.30;97034.00;;;;5033277;28;20287;-63
2022/11/27 00:50:34;;;;;;;18.43;13.80;;;4.20;99.90;3.20;97017.00;;;;5033512;28;20201;-65
2022/11/27 00:53:01;;;;;;;7.00;6.33;;;4.20;99.90;3.20;97020.00;;;;5033184;28;20282;-64
2022/11/27 00:55:27;;;;;;;11.37;8.23;;;4.20;99.90;3.30;97022.00;;;;5033364;28;20192;-64
2022/11/27 00:57:55;;;;;;;4.73;4.33;;;4.20;99.90;3.30;97018.00;;;;5033322;28;20217;-64
2022/11/27 01:00:23;;;;;;;1.13;1.13;;;4.30;99.90;3.20;97017.00;;;;5033286;28;20205;-64
2022/11/27 01:02:49;;;;;;;1.33;1.30;;;4.30;99.90;3.20;97017.00;;;;5033072;28;20290;-64
2022/11/27 01:05:16;;;;;;;1.17;1.17;;;4.20;99.90;2.90;97015.00;;;;5032892;28;20204;-64
2022/11/27 01:07:45;;;;;;;0.90;0.90;;;4.00;99.90;2.80;97014.00;;;;5033861;28;20216;-65
2022/11/27 01:10:12;;;;;;;1.67;1.57;;;3.80;99.90;2.70;97018.00;;;;5019134;28;20643;-66
2022/11/27 01:12:38;;;;;;;2.23;1.97;;;3.80;99.90;2.70;97010.00;;;;5036549;28;20205;-65
2022/11/27 01:15:06;;;;;;;1.43;1.33;;;3.80;99.90;2.50;97010.00;;;;5036667;28;20232;-64
2022/11/27 01:17:32;;;;;;;1.00;1.00;;;3.50;99.80;2.50;97009.00;;;;5036390;28;20207;-66
2022/11/27 01:19:59;;;;;;;1.77;1.67;;;3.60;99.90;2.30;97014.00;;;;5035493;28;20227;-63
2022/11/27 01:22:26;;;;;;;1.60;1.50;;;3.30;99.90;2.10;97002.00;;;;5036371;28;20207;-64
2022/11/27 01:24:55;;;;;;;0.97;0.97;;;3.20;99.90;2.00;97002.00;;;;5035916;28;20277;-63
2022/11/27 01:27:23;;;;;;;1.27;1.27;;;3.00;99.90;2.10;96997.00;;;;5035775;28;20786;-63
2022/11/27 01:29:50;;;;;;;0.90;0.90;;;3.10;99.90;2.10;96997.00;;;;5018738;28;20200;-64
2022/11/27 01:32:18;;;;;;;4.63;1.77;;;3.20;99.90;2.20;96989.00;;;;5036011;28;20585;-64
2022/11/27 01:34:45;;;;;;;0.80;0.80;;;3.30;99.90;2.10;96996.00;;;;5035627;28;20205;-65
2022/11/27 01:37:14;;;;;;;1.57;1.47;;;3.20;99.90;2.20;96987.00;;;;5035807;28;20220;-64
2022/11/27 01:39:41;;;;;;;1.47;1.43;;;3.20;99.90;2.30;96974.00;;;;5035812;28;20503;-64
2022/11/27 01:42:09;;;;;;;1.63;1.53;;;3.30;99.90;2.30;96964.00;;;;5035913;28;20232;-62
2022/11/27 01:44:53;;;;;;;1.83;1.73;;;3.40;99.90;2.40;96969.00;;;;5018776;28;20204;-64
2022/11/27 01:47:36;;;;;;;2.00;1.87;;;3.30;99.90;2.30;96983.00;;;;5035756;28;20236;-63
2022/11/27 01:50:11;;;;;;;2.00;1.17;;;3.30;99.90;2.20;96975.00;;;;5018314;28;20220;-63
2022/11/27 01:52:44;;;;;;;2.40;2.20;;;3.30;99.90;2.40;96980.00;;;;5035799;28;20273;-63
2022/11/27 01:55:19;;;;;;;1.17;1.17;;;3.30;99.90;2.10;96963.00;;;;5018600;28;20558;-65
2022/11/27 01:57:52;;;;;;;1.50;1.40;;;3.10;99.90;2.10;96960.00;;;;5034669;28;20223;-63
2022/11/27 02:00:20;;;;;;;0.93;0.93;;;3.20;99.90;2.00;96953.00;;;;5035582;28;20200;-63
2022/11/27 02:02:48;;;;;;;1.63;1.53;;;3.00;99.90;2.00;96972.00;;;;5035585;28;20202;-65
2022/11/27 02:05:18;;;;;;;3.50;1.80;;;3.00;99.90;1.70;96955.00;;;;5035265;28;20510;-63
2022/11/27 02:07:49;;;;;;;2.23;2.03;;;2.90;99.90;1.70;96960.00;;;;5017925;28;20349;-63
2022/11/27 02:10:19;;;;;;;2.57;1.57;;;2.70;99.90;1.80;96966.00;;;;5018121;28;20241;-64
2022/11/27 02:12:58;;;;;;;8.43;5.67;;;2.80;99.90;2.00;96963.00;;;;5035511;28;20214;-63
2022/11/27 02:15:37;;;;;;;23.67;14.43;;;2.90;99.90;2.10;96961.00;;;;5035233;28;20314;-63
2022/11/27 02:18:16;;;;;;;4.57;4.10;;;3.10;99.90;2.10;96962.00;;;;5035186;28;20202;-63
2022/11/27 02:21:01;;;;;;;1.20;1.20;;;3.10;99.90;2.20;96959.00;;;;5034412;28;20208;-64
2022/11/27 02:24:23;;;;;;;4.70;4.30;;;3.20;99.90;2.30;96951.00;;;;5035450;28;20211;-64
2022/11/27 02:27:39;;;;;;;2.10;1.77;;;3.30;99.90;2.40;96955.00;;;;5035451;28;20236;-64
2022/11/27 02:30:07;;;;;;;1.20;1.10;;;3.40;99.90;2.70;96950.00;;;;5035352;28;20232;-63
2022/11/27 02:32:41;;;;;;;0.93;0.93;;;3.60;99.90;3.10;96954.00;;;;5018017;28;20322;-64
2022/11/27 02:35:16;;;;;;;1.00;1.00;;;3.90;99.90;2.90;96960.00;;;;5035414;28;20243;-64
2022/11/27 02:37:48;;;;;;;1.57;1.47;;;3.90;99.90;2.60;96930.00;;;;5035333;28;20290;-64
2022/11/27 02:40:22;;;;;;;0.90;0.90;;;3.70;99.90;2.50;96944.00;;;;5035290;28;20258;-65
2022/11/27 02:42:55;;;;;;;1.00;1.00;;;3.60;99.90;2.50;96948.00;;;;5035255;28;20204;-64
2022/11/27 02:45:27;;;;;;;0.70;0.70;;;3.70;99.90;2.40;96949.00;;;;5035109;28;20209;-64
2022/11/27 02:47:56;;;;;;;1.60;1.07;;;3.50;99.90;2.40;96950.00;;;;5035033;28;20220;-65
2022/11/27 02:50:28;;;;;;;1.00;1.00;;;3.50;99.90;2.40;96947.00;;;;5035137;28;20196;-64
2022/11/27 02:53:02;;;;;;;1.63;1.53;;;3.40;99.90;2.30;96946.00;;;;5035063;28;20284;-65
2022/11/27 02:55:35;;;;;;;0.80;0.80;;;3.40;99.90;2.20;96948.00;;;;5034980;28;20228;-65
2022/11/27 02:58:07;;;;;;;0.77;0.77;;;3.20;99.90;2.20;96952.00;;;;5034891;28;20582;-64
2022/11/27 03:00:36;;;;;;;1.03;0.80;;;3.20;99.90;2.20;96958.00;;;;5034878;28;20224;-64
2022/11/27 03:03:08;;;;;;;1.07;1.07;;;3.30;99.90;2.00;96944.00;;;;5034898;28;20209;-64
2022/11/27 03:05:40;;;;;;;1.00;1.00;;;3.10;99.90;1.90;96939.00;;;;5034800;28;20204;-64
2022/11/27 03:08:17;;;;;;;0.90;0.90;;;3.10;99.90;2.00;96933.00;;;;5034709;28;20239;-64
2022/11/27 03:10:49;;;;;;;0.87;0.87;;;;;2.00;96925.00;;;;5034752;28;20199;-63
2022/11/27 03:13:16;;;;;;;0.90;0.90;;;;;2.10;96926.00;;;;5034685;28;20227;-64
2022/11/27 03:15:57;;;;;;;0.70;0.70;;;;;2.00;96912.00;;;;5034754;28;20199;-63
2022/11/27 03:18:30;;;;;;;1.10;1.10;;;;;2.10;96909.00;;;;5034545;28;20223;-64
2022/11/27 03:21:04;;;;;;;0.90;0.90;;;;;2.00;96916.00;;;;5034703;28;20212;-64
2022/11/27 03:23:31;;;;;;;1.30;1.17;;;;;2.00;96915.00;;;;5034569;28;20208;-64
2022/11/27 03:26:00;;;;;;;1.50;1.40;;;;;1.90;96905.00;;;;5017163;28;20242;-65
2022/11/27 03:28:27;;;;;;;0.77;0.77;;;;;1.90;96904.00;;;;5017164;28;20229;-64
2022/11/27 03:30:55;;;;;;;0.90;0.90;;;3.00;99.90;1.90;96898.00;;;;5033458;28;20270;-64
2022/11/27 03:33:21;;;;;;;1.13;1.13;;;2.90;99.90;1.80;96897.00;;;;5034394;28;20223;-62
2022/11/27 03:35:48;;;;;;;1.23;1.23;;;2.80;99.90;1.70;96902.00;;;;5034433;28;20200;-64
2022/11/27 03:38:14;;;;;;;1.03;1.03;;;2.80;99.90;1.60;96897.00;;;;5016924;28;20205;-64
2022/11/27 03:40:53;;;;;;;1.30;1.30;;;2.80;99.90;1.60;96898.00;;;;5034300;28;20193;-65
2022/11/27 03:43:26;;;;;;;0.97;0.97;;;2.70;99.90;1.70;96904.00;;;;5034230;28;20185;-68
2022/11/27 03:46:00;;;;;;;1.27;1.27;;;2.70;99.90;1.50;96911.00;;;;5034307;28;20220;-66
2022/11/27 03:48:37;;;;;;;1.87;1.77;;;2.70;99.90;1.40;96911.00;;;;5034260;28;20277;-63
2022/11/27 03:51:18;;;;;;;1.20;1.20;;;2.50;99.90;1.40;96907.00;;;;5034147;28;20251;-63
2022/11/27 03:53:58;;;;;;;2.77;2.07;;;2.50;99.90;1.50;96913.00;;;;5034086;28;20207;-63
2022/11/27 03:56:38;;;;;;;0.80;0.80;;;2.50;99.90;1.50;96893.00;;;;5034055;28;20310;-63
2022/11/27 03:59:15;;;;;;;1.20;1.20;;;2.60;99.90;1.50;96893.00;;;;5034102;28;20192;-63
2022/11/27 04:01:44;;;;;;;0.80;0.80;;;2.50;99.90;1.60;96890.00;;;;5034028;28;20231;-63
2022/11/27 04:04:11;;;;;;;1.30;1.30;;;2.60;99.90;1.50;96890.00;;;;5034006;28;20219;-65
2022/11/27 04:06:37;;;;;;;2.27;1.10;;;2.60;99.90;1.40;96888.00;;;;5033906;28;20699;-66
2022/11/27 04:09:04;;;;;;;0.90;0.90;;;2.50;99.90;1.30;96886.00;;;;5033898;28;20651;-64
2022/11/27 04:11:31;;;;;;;1.20;1.20;;;2.50;99.90;1.30;96893.00;;;;5033035;28;20208;-64
2022/11/27 04:13:57;;;;;;;1.43;1.20;;;2.40;99.90;1.10;96883.00;;;;5033735;28;20223;-65
2022/11/27 04:16:24;;;;;;;1.37;1.27;;;2.30;99.90;1.10;96878.00;;;;5033826;28;20274;-64
2022/11/27 04:18:51;;;;;;;0.70;0.70;;;2.20;99.90;1.20;96875.00;;;;5033749;28;20599;-64
2022/11/27 04:21:20;;;;;;;1.20;1.17;;;2.30;99.90;1.20;96881.00;;;;5033710;28;20218;-63
2022/11/27 04:23:48;;;;;;;0.80;0.80;;;2.30;99.90;1.10;96878.00;;;;5033629;28;20271;-64
2022/11/27 04:26:15;;;;;;;1.00;1.00;;;2.30;99.90;1.20;96882.00;;;;5033652;28;20215;-63
2022/11/27 04:28:41;;;;;;;0.97;0.97;;;2.30;99.90;1.20;96883.00;;;;5016254;28;20213;-64
2022/11/27 04:31:08;;;;;;;2.20;1.67;;;2.20;99.90;1.20;96871.00;;;;5033662;28;20202;-64
2022/11/27 04:33:34;;;;;;;0.83;0.83;;;2.20;99.90;1.20;96865.00;;;;5033654;28;20212;-64
2022/11/27 04:36:01;;;;;;;4.63;1.33;;;2.30;99.90;1.30;96862.00;;;;5033621;28;20227;-66
2022/11/27 04:38:28;;;;;;;2.07;0.97;;;2.30;99.90;1.20;96857.00;;;;5033570;28;20196;-66
2022/11/27 04:40:54;;;;;;;1.10;1.10;;;2.30;99.90;1.10;96851.00;;;;5033430;28;20241;-66
2022/11/27 04:43:20;;;;;;;0.90;0.90;;;2.20;99.90;1.00;96847.00;;;;5035523;28;20638;-66
2022/11/27 04:45:49;;;;;;;1.10;1.10;;;2.20;99.90;0.90;96863.00;;;;5036950;28;20289;-64
2022/11/27 04:48:16;;;;;;;0.90;0.90;;;2.10;99.90;0.90;96857.00;;;;5036903;28;20228;-66
2022/11/27 04:50:42;;;;;;;1.67;1.57;;;2.10;99.90;0.70;96860.00;;;;5036932;28;20207;-65
2022/11/27 04:53:12;;;;;;;0.80;0.80;;;2.00;99.90;0.70;96860.00;;;;5036797;28;20529;-66
2022/11/27 04:55:38;;;;;;;0.70;0.70;;;1.80;99.90;0.80;96871.00;;;;5036780;28;20623;-64
2022/11/27 04:58:04;;;;;;;0.97;0.97;;;1.90;99.90;0.80;96877.00;;;;5019346;28;20745;-64
2022/11/27 05:00:31;;;;;;;5.10;1.10;;;1.90;99.90;0.70;96866.00;;;;5036763;28;20208;-64
2022/11/27 05:03:00;;;;;;;0.80;0.80;;;1.80;99.90;0.70;96863.00;;;;5036600;28;20211;-64
2022/11/27 05:05:26;;;;;;;0.90;0.90;;;1.80;99.90;0.90;96863.00;;;;5036701;28;20208;-64
2022/11/27 05:07:55;;;;;;;1.40;1.30;;;2.00;99.90;0.90;96856.00;;;;5036548;28;20354;-64
2022/11/27 05:10:22;;;;;;;0.80;0.80;;;2.00;99.90;0.90;96862.00;;;;5036531;28;20214;-64
2022/11/27 05:12:50;;;;;;;3.43;1.80;;;2.00;99.90;0.90;96849.00;;;;5036577;28;20299;-64
2022/11/27 05:15:19;;;;;;;0.70;0.70;;;2.10;99.90;0.90;96859.00;;;;5036373;28;20681;-65
2022/11/27 05:17:45;;;;;;;0.70;0.70;;;2.10;99.90;0.90;96864.00;;;;5036475;28;20287;-65
2022/11/27 05:20:12;;;;;;;0.90;0.90;;;2.10;99.90;0.80;96852.00;;;;5018883;28;20509;-65
2022/11/27 05:22:38;;;;;;;1.60;0.97;;;2.00;99.90;0.80;96853.00;;;;5019298;28;20204;-66
2022/11/27 05:25:06;;;;;;;0.90;0.90;;;1.90;99.90;0.90;96852.00;;;;5036481;28;20207;-67
2022/11/27 05:27:33;;;;;;;1.27;1.17;;;1.90;99.90;0.90;96845.00;;;;5036296;28;20707;-64
2022/11/27 05:30:01;;;;;;;1.57;1.47;;;1.90;99.90;0.80;96849.00;;;;5036384;28;20199;-65
2022/11/27 05:32:28;;;;;;;1.03;1.03;;;1.90;99.90;0.60;96838.00;;;;5036369;28;20286;-66
2022/11/27 05:34:54;;;;;;;0.90;0.90;;;1.80;99.90;0.60;96841.00;;;;5036388;28;20198;-66
2022/11/27 05:37:21;;;;;;;0.73;0.73;;;1.80;99.90;0.60;96832.00;;;;5036357;28;20289;-66
2022/11/27 05:39:47;;;;;;;0.90;0.90;;;1.60;99.90;0.70;96840.00;;;;5036236;28;20631;-64
2022/11/27 05:42:13;;;;;;;1.23;1.13;;;1.70;99.90;0.60;96836.00;;;;5035802;28;20533;-64
2022/11/27 05:44:40;;;;;;;1.63;1.53;;;1.70;99.90;0.60;96834.00;;;;5018555;28;20199;-66
2022/11/27 05:47:07;;;;;;;0.60;0.60;;;1.60;99.90;0.40;96837.00;;;;5035854;28;20218;-64
2022/11/27 05:49:34;;;;;;;0.90;0.90;;;1.60;99.90;0.40;96840.00;;;;5035939;28;20223;-65
2022/11/27 05:52:00;;;;;;;1.13;1.10;;;1.40;99.90;0.30;96835.00;;;;5018600;28;20626;-64
2022/11/27 05:54:27;;;;;;;0.80;0.80;;;1.50;99.90;0.30;96834.00;;;;5034878;28;20274;-64
2022/11/27 05:56:53;;;;;;;0.83;0.83;;;1.40;99.90;0.20;96837.00;;;;5035922;28;20263;-64
2022/11/27 05:59:19;;;;;;;1.03;1.03;;;1.40;99.90;0.10;96837.00;;;;5035664;28;20203;-64
2022/11/27 06:01:48;;;;;;;1.27;1.27;;;1.40;99.90;0.10;96837.00;;;;5035937;28;20201;-64
2022/11/27 06:04:14;;;;;;;1.03;1.03;;;1.30;99.90;0.30;96835.00;;;;5035776;28;20204;-64
2022/11/27 06:06:40;;;;;;;0.80;0.80;;;1.30;99.90;0.40;96829.00;;;;5035528;28;20221;-64
2022/11/27 06:09:07;;;;;;;0.80;0.80;;;1.40;99.90;0.40;96837.00;;;;5035761;28;20215;-64
2022/11/27 06:11:34;;;;;;;0.93;0.93;;;1.50;99.90;0.50;96839.00;;;;5035815;28;20585;-67
2022/11/27 06:14:00;;;;;;;0.90;0.90;;;1.60;99.90;0.60;96832.00;;;;5018589;28;20277;-66
2022/11/27 06:16:26;;;;;;;1.00;1.00;;;1.60;99.90;0.60;96838.00;;;;5035548;28;20218;-66
2022/11/27 06:18:55;;;;;;;0.90;0.90;;;1.70;99.90;0.60;96847.00;;;;5035606;28;20270;-63
2022/11/27 06:21:24;;;;;;;1.10;1.10;;;1.60;99.90;0.40;96850.00;;;;5035587;28;20275;-64
2022/11/27 06:23:54;;;;;;;1.37;1.10;;;1.50;99.90;0.50;96849.00;;;;5035493;28;20197;-64
2022/11/27 06:26:24;;;;;;;0.80;0.80;;;1.60;99.90;0.60;96841.00;;;;5035457;28;20206;-64
2022/11/27 06:28:52;;;;;;;0.73;0.73;;;1.60;99.90;0.50;96839.00;;;;5034700;28;20325;-63
2022/11/27 06:31:23;;;;;;;0.70;0.70;;;1.60;99.60;0.50;96835.00;;;;5035538;28;20202;-65
2022/11/27 06:33:52;;;;;;;0.90;0.90;;;1.60;99.70;0.40;96832.00;;;;5035348;28;20230;-64
2022/11/27 06:36:21;;;;;;;0.87;0.87;;;1.50;99.50;0.50;96829.00;;;;5035396;28;20197;-63
2022/11/27 06:38:47;;;;;;;1.20;1.20;;;1.60;99.60;0.50;96837.00;;;;5035283;28;20210;-64
2022/11/27 06:41:18;;;;;;;0.80;0.80;;;1.50;99.70;0.50;96812.00;;;;5035392;28;20279;-64
2022/11/27 06:43:45;;;;;;;2.30;2.10;;;1.50;99.60;0.50;96817.00;;;;5017843;28;20521;-63
2022/11/27 06:46:14;;;;;;;1.60;1.50;;;1.60;99.90;0.40;96824.00;;;;5035185;28;20622;-63
2022/11/27 06:48:45;;;;;;;1.40;1.30;;;1.60;99.10;0.40;96819.00;;;;5017628;28;20233;-64
2022/11/27 06:51:15;;;;;;;0.90;0.90;;;1.40;98.90;0.30;96800.00;;;;5034919;28;20225;-64
2022/11/27 06:53:44;;;;;;;1.87;1.30;;;1.40;98.40;0.10;96805.00;;;;5034964;28;20191;-66
2022/11/27 06:56:13;;;;;;;1.83;1.70;;;1.20;96.90;0.00;96789.00;;;;5034818;28;20237;-63
2022/11/27 06:58:40;;;;;;;0.87;0.87;;;1.10;98.00;0.20;96811.00;;;;5034999;28;20540;-66
2022/11/27 07:01:11;;;;;;;0.73;0.73;;;1.20;99.10;0.40;96817.00;;;;5034840;28;20225;-64
2022/11/27 07:03:40;;;;;;;0.93;0.93;;;1.40;99.90;0.50;96796.00;;;;5017622;28;20213;-63
2022/11/27 07:06:10;;;;;;;0.93;0.93;;;1.50;99.80;0.50;96806.00;;;;5017579;28;20520;-65
2022/11/27 07:08:36;;;;;;;0.77;0.77;;;1.50;99.40;0.60;96796.00;;;;5034749;28;20230;-63
2022/11/27 07:11:07;;;;;;;0.73;0.73;;;1.60;99.50;0.70;96811.00;;;;5034867;28;20209;-63
2022/11/27 07:13:36;;;;;;;0.70;0.70;;;1.70;99.90;0.60;96789.00;;;;5017200;28;20325;-64
2022/11/27 07:16:08;;;;;;;0.70;0.70;;;1.70;99.10;0.70;96801.00;;;;5034676;28;20218;-64
2022/11/27 07:18:37;;;;;;;0.70;0.70;;;1.80;99.40;0.80;96788.00;;;;5034530;28;20220;-65
2022/11/27 07:21:04;;;;;;;0.70;0.70;;;1.80;99.60;0.90;96785.00;;;;5034691;28;20202;-65
2022/11/27 07:23:31;;;;;;;0.80;0.80;;;1.90;99.60;0.90;96768.00;;;;5034475;28;20221;-66
2022/11/27 07:25:57;;;;;;;4.27;1.87;;;2.00;99.10;1.00;96774.00;;;;5034592;28;20267;-63
2022/11/27 07:28:25;;;;;;;0.80;0.80;;;2.00;99.10;1.00;96781.00;;;;5034424;28;20217;-66
2022/11/27 07:30:54;;;;;;;1.23;1.23;;;2.00;98.90;1.10;96779.00;;;;5033725;28;20199;-66
2022/11/27 07:33:24;;;;;;;0.70;0.70;;;2.10;99.00;1.10;96769.00;;;;5033610;28;20210;-63
2022/11/27 07:35:58;;;;;;;0.90;0.90;;;2.10;98.70;1.20;96758.00;;;;5034546;28;20310;-64
2022/11/27 07:38:25;;;;;;;1.53;1.40;;;2.20;98.50;1.10;96762.00;;;;5034525;28;20211;-64
2022/11/27 07:40:51;;;;;;;1.83;1.73;;;2.10;98.60;1.10;96759.00;;;;5033365;28;20231;-64
2022/11/27 07:43:20;;;;;;;1.90;1.53;;;2.20;99.10;1.30;96759.00;;;;5017037;28;20302;-64
2022/11/27 07:45:47;;;;;;;2.27;2.17;;;2.30;99.40;1.40;96768.00;;;;5034204;28;20200;-64
2022/11/27 07:48:14;;;;;;;1.03;1.03;;;2.40;99.30;1.50;96768.00;;;;5034200;28;20228;-64
2022/11/27 07:50:42;;;;;;;1.67;1.20;;;2.50;98.50;1.40;96760.00;;;;5034196;28;20203;-65
2022/11/27 07:53:09;;;;;;;0.80;0.80;;;2.50;97.40;1.50;96771.00;;;;5034135;28;20202;-64
2022/11/27 07:55:37;;;;;;;1.50;1.40;;;2.50;98.00;1.60;96764.00;;;;5016810;28;20195;-64
2022/11/27 07:58:04;;;;;;;2.27;1.80;;;2.60;97.90;1.50;96762.00;;;;5034244;28;20243;-65
2022/11/27 08:00:31;;;;;;;1.90;1.80;;;2.60;97.40;1.50;96767.00;;;;5034008;28;20218;-64
2022/11/27 08:03:01;;;;;;;5.10;1.47;;;2.50;97.60;1.50;96765.00;;;;5034159;28;20231;-66
2022/11/27 08:05:28;;;;;;;0.87;0.87;;;2.60;97.90;1.60;96766.00;;;;5033103;28;20211;-66
2022/11/27 08:07:59;;;;;;;1.20;1.20;;;2.60;97.00;1.70;96769.00;;;;5033800;28;20250;-65
2022/11/27 08:10:26;;;;;;;1.53;1.43;;;2.70;97.40;2.00;96766.00;;;;5033016;28;20502;-63
2022/11/27 08:12:52;;;;;;;0.97;0.97;;;2.80;97.60;2.10;96755.00;;;;5033952;28;20196;-64
2022/11/27 08:15:19;;;;;;;0.87;0.87;;;2.90;97.60;2.30;96750.00;;;;5016240;28;20242;-64
2022/11/27 08:17:45;;;;;;;1.50;1.50;;;3.10;97.70;2.50;96756.00;;;;5033054;28;20207;-64
2022/11/27 08:20:13;;;;;;;0.93;0.93;;;3.30;97.30;2.40;96756.00;;;;5033525;28;20219;-64
2022/11/27 08:22:39;;;;;;;1.20;1.20;;;3.40;96.80;2.60;96760.00;;;;5033810;28;20204;-64
2022/11/27 08:25:06;;;;;;;1.07;1.07;;;3.50;97.20;2.70;96770.00;;;;5033614;28;20208;-64
2022/11/27 08:27:35;;;;;;;0.67;0.67;;;3.60;96.20;2.60;96776.00;;;;5033682;28;20834;-64
2022/11/27 08:30:02;;;;;;;1.00;1.00;;;3.60;99.90;2.30;96770.00;;;;5033728;28;20193;-64
2022/11/27 08:32:29;;;;;;;0.60;0.60;;;3.40;99.90;2.50;96764.00;;;;5016302;28;20202;-64
2022/11/27 08:34:58;;;;;;;5.70;1.30;;;3.50;99.90;2.70;96728.00;;;;5033700;28;20204;-63
2022/11/27 08:37:25;;;;;;;2.20;2.10;;;3.60;99.90;2.70;96733.00;;;;5033529;28;20290;-64
2022/11/27 08:39:51;;;;;;;1.67;1.57;;;3.60;99.90;2.90;96726.00;;;;5033529;28;20204;-64
2022/11/27 08:42:18;;;;;;;3.40;2.73;;;3.70;98.10;3.10;96721.00;;;;5033444;28;20239;-64
2022/11/27 08:44:44;;;;;;;1.47;1.37;;;3.90;99.90;3.00;96716.00;;;;5033450;28;20200;-64
2022/11/27 08:47:10;;;;;;;1.63;1.53;;;3.90;99.90;3.00;96721.00;;;;5033409;28;20224;-64
2022/11/27 08:49:37;;;;;;;1.57;1.47;;;3.90;99.90;3.10;96709.00;;;;5033463;28;20259;-64
2022/11/27 08:52:04;;;;;;;1.17;1.17;;;4.10;99.90;3.20;96716.00;;;;5033447;28;20608;-65
2022/11/27 08:54:33;;;;;;;5.50;1.50;;;4.20;99.90;3.50;96701.00;;;;5033364;28;20566;-64
2022/11/27 08:56:59;;;;;;;1.30;1.30;;;4.30;99.90;3.60;96699.00;;;;5033367;28;20648;-66
2022/11/27 08:59:26;;;;;;;1.00;1.00;;;4.50;99.90;3.80;96704.00;;;;5033333;28;20238;-65
2022/11/27 09:01:52;;;;;;;1.50;1.40;;;4.70;99.90;3.90;96707.00;;;;5015957;28;20208;-67
2022/11/27 09:04:19;;;;;;;1.33;1.20;;;4.80;99.90;3.90;96708.00;;;;5033323;28;20216;-64
2022/11/27 09:06:47;;;;;;;1.37;1.27;;;4.80;99.90;3.80;96701.00;;;;5033168;28;20209;-65
2022/11/27 09:09:14;;;;;;;0.93;0.93;;;;;3.70;96708.00;;;;5033267;28;20645;-65
2022/11/27 09:11:41;;;;;;;0.60;0.60;;;4.70;99.90;3.80;96707.00;;;;5033057;28;20254;-64
2022/11/27 09:14:11;;;;;;;1.60;1.50;;;4.70;99.90;4.00;96702.00;;;;5033137;28;20580;-64
2022/11/27 09:16:40;;;;;;;1.67;1.57;;;4.80;99.90;4.20;96685.00;;;;5033107;28;20220;-64
2022/11/27 09:19:06;;;;;;;2.60;2.40;;;5.00;99.90;4.50;96689.00;;;;5015954;28;20508;-64
2022/11/27 09:21:32;;;;;;;2.40;2.10;;;5.30;99.90;4.60;96687.00;;;;5033145;28;20239;-64
2022/11/27 09:24:01;;;;;;;1.00;1.00;;;5.40;99.90;4.80;96692.00;;;;5033130;28;20224;-65
2022/11/27 09:26:29;;;;;;;0.83;0.83;;;5.60;99.90;4.90;96682.00;;;;5032869;28;20230;-65
2022/11/27 09:28:58;;;;;;;1.07;0.97;;;5.90;99.90;5.10;96707.00;;;;5032717;28;20232;-65
2022/11/27 09:31:27;;;;;;;0.80;0.80;;;6.00;99.90;5.10;96698.00;;;;5036250;28;20652;-64
2022/11/27 09:33:53;;;;;;;0.97;0.97;;;5.90;99.90;5.10;96699.00;;;;5018892;28;20714;-64
2022/11/27 09:36:23;;;;;;;0.80;0.80;;;6.00;98.50;5.50;96709.00;;;;5018865;28;20268;-65
2022/11/27 09:38:50;;;;;;;1.07;1.07;;;6.20;99.30;5.80;96695.00;;;;5036194;28;20204;-65
2022/11/27 09:41:44;;;;;;;0.90;0.90;;;6.50;99.90;5.90;96687.00;;;;5036327;28;20357;-65
2022/11/27 09:44:23;;;;;;;1.30;1.20;;;6.70;99.90;6.10;96692.00;;;;5036189;28;20208;-65
2022/11/27 09:46:53;;;;;;;0.67;0.67;;;6.80;97.60;6.30;96674.00;;;;5036059;28;20639;-65
2022/11/27 09:49:28;;;;;;;1.23;1.13;;;7.10;96.50;6.60;96677.00;;;;5035976;28;20215;-63
2022/11/27 09:52:02;;;;;;;1.00;1.00;;;7.30;99.90;6.80;96666.00;;;;5018579;28;20211;-63
2022/11/27 09:54:36;;;;;;;0.77;0.77;;;7.50;99.30;6.70;96661.00;;;;5036039;28;20269;-65
2022/11/27 09:57:04;;;;;;;0.93;0.93;;;7.50;99.50;6.80;96649.00;;;;5018680;28;20212;-63
2022/11/27 09:59:42;;;;;;;0.83;0.83;;;7.60;98.60;6.60;96649.00;;;;5035965;28;20813;-64
2022/11/27 10:02:18;;;;;;;0.60;0.60;;;7.60;98.00;6.60;96660.00;;;;5035935;28;20207;-63
2022/11/27 10:04:45;;;;;;;1.77;1.67;;;7.40;96.10;6.50;96647.00;;;;5035981;28;20624;-63
2022/11/27 10:07:32;;;;;;;0.80;0.80;;;7.40;94.60;6.60;96656.00;;;;5035711;28;20228;-64
2022/11/27 10:10:20;;;;;;;0.70;0.70;;;7.40;96.30;6.70;96657.00;;;;5035774;28;20197;-64
2022/11/27 10:13:04;;;;;;;1.03;1.03;;;7.50;97.40;6.70;96650.00;;;;5035195;28;20234;-64
2022/11/27 10:15:43;;;;;;;1.80;1.67;;;7.50;95.30;6.90;96665.00;;;;5035707;28;20234;-64
2022/11/27 10:18:18;;;;;;;0.70;0.70;;;7.60;99.80;7.10;96632.00;;;;5035601;28;20206;-63
2022/11/27 10:20:50;;;;;;;0.80;0.80;;;7.80;99.90;7.10;96642.00;;;;5035663;28;20350;-65
2022/11/27 10:23:31;;;;;;;0.90;0.90;;;7.90;99.90;7.30;96643.00;;;;5035565;28;20204;-63
2022/11/27 10:26:05;;;;;;;0.80;0.80;;;8.00;99.90;7.40;96623.00;;;;5035508;28;20216;-64
2022/11/27 10:28:44;;;;;;;8.57;1.33;;;8.20;99.90;7.80;96621.00;;;;5035366;28;20311;-64
2022/11/27 10:31:16;;;;;;;2.83;1.53;;;8.40;99.90;8.10;96634.00;;;;5035501;28;20281;-64
2022/11/27 10:33:49;;;;;;;1.47;1.37;;;8.70;99.90;8.20;96627.00;;;;5035407;28;20232;-64
2022/11/27 10:36:25;;;;;;;1.13;1.13;;;9.00;79.40;8.40;96633.00;;;;5035330;28;20196;-65
2022/11/27 10:38:56;;;;;;;0.70;0.70;;;9.10;75.70;8.10;96628.00;;;;5035173;28;20635;-63
2022/11/27 10:41:32;;;;;;;0.60;0.60;;;9.00;69.00;8.10;96617.00;;;;5034872;28;20216;-63
2022/11/27 10:44:26;;;;;;;3.40;1.40;;;8.90;66.60;8.50;96614.00;;;;5035146;28;20204;-64
2022/11/27 10:46:59;;;;;;;0.60;0.60;;;;;8.90;96621.00;;;;5035290;28;20192;-64
2022/11/27 10:49:26;;;;;;;1.33;1.23;;;;;9.30;96609.00;;;;5035265;28;20224;-64
2022/11/27 10:51:55;;;;;;;0.60;0.60;;;;;9.30;96602.00;;;;5017763;28;20209;-64
2022/11/27 10:54:26;;;;;;;2.47;1.13;;;;;9.70;96594.00;;;;5034991;28;20259;-65
2022/11/27 10:57:17;;;;;;;1.27;1.17;;;;;10.00;96598.00;;;;5035030;28;20201;-64
2022/11/27 10:59:58;;;;;;;0.93;0.93;;;10.30;91.20;9.50;96589.00;;;;5034766;28;20232;-64
2022/11/27 11:02:31;;;;;;;0.80;0.80;;;10.10;89.90;9.50;96582.00;;;;5034816;28;20197;-64
2022/11/27 11:05:09;;;;;;;0.60;0.60;;;10.30;87.40;9.30;96576.00;;;;5034920;28;20229;-64
2022/11/27 11:07:36;;;;;;;0.60;0.60;;;10.10;87.10;9.10;96570.00;;;;5034862;28;20703;-64
2022/11/27 11:10:06;;;;;;;1.00;1.00;;;;;9.10;96561.00;;;;5035017;28;20220;-64
2022/11/27 11:12:33;;;;;;;0.60;0.60;;;;;9.10;96549.00;;;;5034695;28;20555;-64
2022/11/27 11:15:00;;;;;;;1.63;1.53;;;9.80;93.10;8.80;96547.00;;;;5017265;28;20197;-64
2022/11/27 11:17:33;;;;;;;1.47;1.20;;;9.90;85.80;9.20;96523.00;;;;5017362;28;20644;-65
2022/11/27 11:20:20;;;;;;;0.60;0.60;;;9.90;85.90;11.20;96486.00;;;;5034712;28;20204;-65
2022/11/27 11:22:47;;;;;;;0.73;0.73;;;;;13.10;96493.00;;;;5033967;28;20205;-65
2022/11/27 11:25:17;;;;;;;0.50;0.50;;;;;14.40;96463.00;;;;5034751;28;20193;-65
2022/11/27 11:27:45;;;;;;;0.60;0.60;;;;;15.90;96486.00;;;;5034720;28;20682;-66